Time;durP1;ratioP1;P1;durP2;ratioP2;P2;SDS_P1;SDS_P2;PMS_P1;PMS_P2;Temp;Humidity;BMP_temperature;BMP_pressure;BME280_temperature;BME280_humidity;BME280_pressure;Samples;Min_cycle;Max_cycle;Signal;HPM_P1;HPM_P2
2022/05/05 00:01:17;;;;;;;8.10;4.28;;;;;;;;;;5000937;28;20131;-72
2022/05/05 00:03:47;;;;;;;7.25;4.22;;;;;;;;;;5001729;28;20057;-70
2022/05/05 00:06:15;;;;;;;6.70;4.00;;;;;;;;;;4999043;28;20046;-70
2022/05/05 00:08:43;;;;;;;9.20;4.32;;;;;;;;;;4998587;28;21551;-70
2022/05/05 00:16:43;;;;;;;5.78;3.60;;;;;;;;;;5001864;28;20070;-72
2022/05/05 00:19:13;;;;;;;6.32;3.78;;;;;;;;;;4999813;28;20577;-69
2022/05/05 00:21:41;;;;;;;7.32;4.20;;;;;;;;;;5000759;28;20065;-70
2022/05/05 00:24:11;;;;;;;6.15;3.63;;;;;;;;;;5001534;28;20126;-70
2022/05/05 00:26:39;;;;;;;6.20;3.58;;;;;;;;;;5001656;28;20070;-69
2022/05/05 00:29:08;;;;;;;5.40;3.53;;;;;;;;;;5001913;28;20060;-70
2022/05/05 00:31:36;;;;;;;6.15;4.00;;;;;;;;;;5002674;28;20504;-69
2022/05/05 00:34:04;;;;;;;7.03;3.25;;;;;;;;;;5003325;28;20148;-69
2022/05/05 00:36:34;;;;;;;8.32;3.95;;;;;;;;;;5002412;28;20132;-69
2022/05/05 00:39:02;;;;;;;5.75;3.15;;;;;;;;;;5000626;28;20172;-70
2022/05/05 00:41:33;;;;;;;5.80;3.70;;;;;;;;;;5001988;28;20450;-70
2022/05/05 00:44:01;;;;;;;6.13;3.30;;;;;;;;;;5001655;28;20058;-70
2022/05/05 00:46:30;;;;;;;7.40;3.50;;;;;;;;;;5002824;28;20077;-69
2022/05/05 00:48:58;;;;;;;7.20;3.20;;;;;;;;;;5000692;28;20107;-69
2022/05/05 00:51:27;;;;;;;4.43;3.28;;;;;;;;;;4999868;28;20157;-70
2022/05/05 00:53:57;;;;;;;6.32;3.50;;;;;;;;;;4996840;28;20046;-70
2022/05/05 00:56:26;;;;;;;4.75;3.33;;;;;;;;;;4999859;28;20125;-70
2022/05/05 00:58:55;;;;;;;6.13;3.38;;;;;;;;;;5001497;28;20108;-69
2022/05/05 01:01:29;;;;;;;5.25;3.35;;;;;;;;;;4998041;28;20065;-70
2022/05/05 01:03:57;;;;;;;7.63;3.53;;;;;;;;;;5003794;28;20180;-70
2022/05/05 01:06:25;;;;;;;4.82;3.15;;;;;;;;;;5001991;28;20054;-69
2022/05/05 01:08:54;;;;;;;7.20;3.25;;;;;;;;;;5001097;28;20060;-69
2022/05/05 01:11:23;;;;;;;4.28;2.72;;;;;;;;;;5002553;28;20060;-69
2022/05/05 01:13:52;;;;;;;4.05;3.03;;;;;;;;;;5005926;28;20058;-69
2022/05/05 01:16:23;;;;;;;5.85;3.55;;;;;;;;;;5005059;28;20495;-69
2022/05/05 01:18:55;;;;;;;4.30;2.72;;;;;;;;;;5003276;28;20406;-69
2022/05/05 01:21:25;;;;;;;5.85;3.22;;;;;;;;;;5002495;28;20096;-70
2022/05/05 01:23:53;;;;;;;10.40;3.00;;;;;;;;;;5003490;28;20478;-72
2022/05/05 01:29:14;;;;;;;6.95;2.85;;;;;;;;;;5003649;28;20046;-70
2022/05/05 01:31:44;;;;;;;4.47;3.05;;;;;;;;;;5004195;28;20577;-70
2022/05/05 01:34:12;;;;;;;5.72;3.03;;;;;;;;;;5003782;28;20565;-71
2022/05/05 01:36:42;;;;;;;6.72;3.03;;;;;;;;;;5004105;28;20050;-72
2022/05/05 01:39:10;;;;;;;5.68;3.03;;;;;;;;;;4996831;28;20129;-71
2022/05/05 01:41:38;;;;;;;5.20;3.20;;;;;;;;;;5004789;28;20141;-69
2022/05/05 01:44:07;;;;;;;4.95;2.63;;;;;;;;;;5004395;28;20709;-69
2022/05/05 01:46:35;;;;;;;3.65;2.38;;;;;;;;;;5003587;28;20422;-69
2022/05/05 01:49:04;;;;;;;5.25;2.78;;;;;;;;;;5004226;28;20050;-69
2022/05/05 01:51:35;;;;;;;4.35;2.63;;;;;;;;;;5004404;28;21010;-72
2022/05/05 01:54:05;;;;;;;7.18;2.47;;;;;;;;;;5001873;28;20077;-69
2022/05/05 01:56:33;;;;;;;4.85;2.78;;;;;;;;;;5002068;28;20125;-69
2022/05/05 01:59:02;;;;;;;3.92;2.75;;;;;;;;;;5004166;28;20046;-70
2022/05/05 02:01:30;;;;;;;6.20;2.70;;;;;;;;;;5003287;28;20466;-69
2022/05/05 02:04:00;;;;;;;4.03;2.40;;;;;;;;;;4998822;28;20591;-69
2022/05/05 02:06:29;;;;;;;3.78;2.13;;;;;;;;;;5001364;28;20156;-70
2022/05/05 02:08:58;;;;;;;4.05;2.45;;;;;;;;;;5002531;28;20508;-72
2022/05/05 02:11:41;;;;;;;4.55;2.50;;;;;;;;;;5002103;28;20062;-72
2022/05/05 02:14:09;;;;;;;3.50;2.50;;;;;;;;;;5003998;28;20137;-69
2022/05/05 02:16:38;;;;;;;4.10;2.50;;;;;;;;;;5001830;28;20074;-71
2022/05/05 02:19:06;;;;;;;3.38;2.40;;;;;;;;;;4998826;28;20089;-70
2022/05/05 02:21:34;;;;;;;2.72;2.03;;;;;;;;;;5002672;28;20038;-69
2022/05/05 02:24:03;;;;;;;3.25;2.08;;;;;;;;;;5003742;28;20156;-69
2022/05/05 02:26:31;;;;;;;4.40;2.42;;;;;;;;;;5002236;28;20053;-69
2022/05/05 02:29:02;;;;;;;4.47;2.50;;;;;;;;;;5004020;28;20140;-69
2022/05/05 02:31:30;;;;;;;3.83;2.40;;;;;;;;;;5002538;28;20042;-69
2022/05/05 02:33:58;;;;;;;3.30;2.40;;;;;;;;;;4999288;28;20141;-69
2022/05/05 02:39:16;;;;;;;2.90;1.83;;;;;;;;;;5002040;28;20837;-69
2022/05/05 02:41:44;;;;;;;4.05;1.90;;;;;;;;;;5002672;28;20042;-69
2022/05/05 02:44:14;;;;;;;4.07;2.30;;;;;;;;;;5000932;28;20081;-69
2022/05/05 02:46:42;;;;;;;3.22;2.20;;;;;;;;;;4999374;28;20169;-69
2022/05/05 02:49:13;;;;;;;3.45;2.40;;;;;;;;;;5003037;28;20153;-70
2022/05/05 02:51:41;;;;;;;2.95;1.95;;;;;;;;;;4999098;28;20424;-69
2022/05/05 02:56:56;;;;;;;4.90;2.65;;;;;;;;;;5002556;28;20056;-69
2022/05/05 02:59:25;;;;;;;3.25;2.30;;;;;;;;;;5001722;28;20076;-69
2022/05/05 03:01:54;;;;;;;4.93;2.55;;;;;;;;;;5004022;28;20144;-69
2022/05/05 03:04:24;;;;;;;4.78;2.65;;;;;;;;;;5002680;28;20061;-69
2022/05/05 03:06:52;;;;;;;3.53;2.05;;;;;;;;;;5001892;28;20052;-69
2022/05/05 03:09:21;;;;;;;4.78;2.25;;;;;;;;;;5000107;28;20058;-69
2022/05/05 03:11:49;;;;;;;3.50;2.33;;;;;;;;;;5002293;28;20060;-71
2022/05/05 03:14:17;;;;;;;3.65;1.90;;;;;;;;;;5001771;28;20066;-71
2022/05/05 03:16:47;;;;;;;4.97;2.30;;;;;;;;;;5002817;28;20041;-69
2022/05/05 03:19:15;;;;;;;3.25;2.25;;;;;;;;;;5002336;28;20064;-70
2022/05/05 03:21:44;;;;;;;3.40;1.80;;;;;;;;;;5000749;28;20092;-70
2022/05/05 03:24:12;;;;;;;4.40;2.50;;;;;;;;;;5002722;28;20611;-69
2022/05/05 03:26:41;;;;;;;5.68;2.45;;;;;;;;;;5000683;28;20090;-70
2022/05/05 03:29:09;;;;;;;4.13;2.20;;;;;;;;;;5001716;28;20089;-69
2022/05/05 03:31:37;;;;;;;2.70;1.95;;;;;;;;;;5000714;28;20058;-69
2022/05/05 03:34:07;;;;;;;3.85;2.45;;;;;;;;;;5002181;28;20137;-69
2022/05/05 03:36:35;;;;;;;5.05;2.45;;;;;;;;;;5002223;28;20916;-69
2022/05/05 03:39:04;;;;;;;3.15;2.20;;;;;;;;;;5001288;28;20054;-69
2022/05/05 03:41:35;;;;;;;2.97;1.80;;;;;;;;;;5002086;28;20133;-70
2022/05/05 03:44:05;;;;;;;5.20;2.20;;;;;;;;;;5001927;28;20056;-69
2022/05/05 03:46:42;;;;;;;4.40;1.85;;;;;;;;;;5003139;28;20053;-69
2022/05/05 03:49:12;;;;;;;3.13;2.00;;;;;;;;;;5001792;28;20478;-69
2022/05/05 03:51:40;;;;;;;4.43;2.28;;;;;;;;;;5000676;28;20137;-69
2022/05/05 03:54:09;;;;;;;4.05;2.20;;;;;;;;;;5000854;28;20046;-69
2022/05/05 03:56:37;;;;;;;3.92;2.10;;;;;;;;;;5000927;28;20045;-69
2022/05/05 03:59:06;;;;;;;5.38;2.97;;;;;;;;;;5001601;28;20041;-69
2022/05/05 04:01:34;;;;;;;5.35;2.78;;;;;;;;;;5001789;28;20049;-70
2022/05/05 04:04:02;;;;;;;6.20;2.47;;;;;;;;;;5002934;28;20045;-72
2022/05/05 04:06:32;;;;;;;4.53;2.35;;;;;;;;;;5003020;28;20584;-70
2022/05/05 04:09:03;;;;;;;4.07;2.20;;;;;;;;;;4999046;28;20100;-69
2022/05/05 04:11:31;;;;;;;4.22;2.67;;;;;;;;;;5001876;28;20054;-69
2022/05/05 04:13:59;;;;;;;4.03;2.20;;;;;;;;;;5002892;28;20705;-69
2022/05/05 04:16:28;;;;;;;3.30;2.20;;;;;;;;;;4998521;28;20104;-71
2022/05/05 04:18:56;;;;;;;4.35;2.40;;;;;;;;;;5001746;28;20045;-70
2022/05/05 04:21:24;;;;;;;3.08;1.85;;;;;;;;;;5001851;28;20050;-70
2022/05/05 04:23:54;;;;;;;4.28;2.17;;;;;;;;;;5001449;28;20093;-69
2022/05/05 04:26:26;;;;;;;2.72;1.60;;;;;;;;;;5000582;28;20100;-69
2022/05/05 04:28:56;;;;;;;4.68;2.65;;;;;;;;;;5002811;28;20045;-71
2022/05/05 04:31:28;;;;;;;2.95;2.20;;;;;;;;;;5004322;28;20086;-70
2022/05/05 04:33:57;;;;;;;5.35;2.10;;;;;;;;;;5001679;28;20089;-71
2022/05/05 04:36:43;;;;;;;3.95;2.20;;;;;;;;;;5002193;28;20175;-70
2022/05/05 04:39:13;;;;;;;2.80;1.90;;;;;;;;;;4999974;28;20069;-71
2022/05/05 04:41:41;;;;;;;3.75;2.15;;;;;;;;;;5003905;28;20137;-69
2022/05/05 04:44:10;;;;;;;3.13;2.28;;;;;;;;;;5005530;28;20077;-69
2022/05/05 04:46:38;;;;;;;2.00;1.52;;;;;;;;;;5005559;28;20188;-69
2022/05/05 04:49:08;;;;;;;4.10;2.10;;;;;;;;;;5002976;28;20046;-69
2022/05/05 04:51:42;;;;;;;3.72;2.25;;;;;;;;;;5004326;28;20058;-69
2022/05/05 04:54:10;;;;;;;3.87;2.23;;;;;;;;;;5002344;28;20152;-69
2022/05/05 04:56:40;;;;;;;2.90;1.70;;;;;;;;;;5003625;28;20469;-69
2022/05/05 04:59:08;;;;;;;4.00;2.30;;;;;;;;;;5004565;28;20083;-69
2022/05/05 05:01:37;;;;;;;5.53;1.83;;;;;;;;;;5005411;28;20659;-69
2022/05/05 05:04:06;;;;;;;3.47;2.00;;;;;;;;;;5005828;28;20176;-70
2022/05/05 05:06:35;;;;;;;3.10;1.90;;;;;;;;;;5005697;28;20132;-69
2022/05/05 05:09:03;;;;;;;4.13;2.15;;;;;;;;;;5002253;28;20089;-70
2022/05/05 05:11:31;;;;;;;3.67;2.13;;;;;;;;;;5001723;28;20061;-68
2022/05/05 05:14:01;;;;;;;3.47;2.30;;;;;;;;;;5004498;28;20073;-69
2022/05/05 05:16:36;;;;;;;3.75;2.40;;;;;;;;;;5000415;28;20050;-71
2022/05/05 05:19:09;;;;;;;3.70;2.22;;;;;;;;;;5005009;28;20140;-68
2022/05/05 05:21:43;;;;;;;3.55;2.33;;;;;;;;;;5004509;28;20060;-69
2022/05/05 05:24:12;;;;;;;5.10;2.33;;;;;;;;;;5004884;28;20054;-70
2022/05/05 05:26:41;;;;;;;4.60;2.50;;;;;;;;;;5005635;28;20050;-69
2022/05/05 05:29:10;;;;;;;3.38;2.15;;;;;;;;;;5005730;28;20204;-69
2022/05/05 05:31:39;;;;;;;5.10;2.20;;;;;;;;;;5005713;28;20484;-69
2022/05/05 05:34:07;;;;;;;4.13;2.58;;;;;;;;;;5006600;28;20144;-69
2022/05/05 05:36:35;;;;;;;4.68;2.33;;;;;;;;;;5004462;28;20124;-69
2022/05/05 05:39:04;;;;;;;4.82;2.22;;;;;;;;;;5003323;28;20060;-69
2022/05/05 05:41:32;;;;;;;4.55;2.20;;;;;;;;;;5004717;28;20128;-69
2022/05/05 05:44:01;;;;;;;4.45;2.60;;;;;;;;;;5001557;28;20046;-70
2022/05/05 05:46:33;;;;;;;4.60;2.63;;;;;;;;;;5005847;28;20081;-69
2022/05/05 05:49:02;;;;;;;5.30;2.65;;;;;;;;;;5005015;28;20485;-69
2022/05/05 05:51:35;;;;;;;4.85;2.70;;;;;;;;;;5005580;28;20116;-69
2022/05/05 05:54:04;;;;;;;5.38;2.22;;;;;;;;;;5004980;28;20556;-70
2022/05/05 05:56:35;;;;;;;3.53;2.45;;;;;;;;;;5005064;28;20133;-69
2022/05/05 05:59:04;;;;;;;5.88;2.40;;;;;;;;;;5005739;28;20073;-70
2022/05/05 06:04:23;;;;;;;4.53;2.50;;;;;;;;;;5004887;28;20442;-69
2022/05/05 06:06:52;;;;;;;6.45;2.55;;;;;;;;;;5005423;28;20066;-68
2022/05/05 06:09:20;;;;;;;7.15;3.05;;;;;;;;;;5004153;28;20615;-69
2022/05/05 06:11:49;;;;;;;4.70;2.88;;;;;;;;;;5006682;28;20518;-69
2022/05/05 06:14:17;;;;;;;3.40;2.40;;;;;;;;;;5005217;28;20360;-69
2022/05/05 06:16:47;;;;;;;3.75;2.58;;;;;;;;;;5004614;28;20477;-69
2022/05/05 06:19:16;;;;;;;6.57;3.00;;;;;;;;;;5002951;28;20141;-72
2022/05/05 06:21:44;;;;;;;5.65;3.20;;;;;;;;;;5005298;28;20410;-69
2022/05/05 06:24:13;;;;;;;7.85;3.88;;;;;;;;;;5004713;28;20140;-70
2022/05/05 06:26:41;;;;;;;6.75;4.15;;;;;;;;;;5005127;28;20462;-69
2022/05/05 06:29:09;;;;;;;9.65;4.55;;;;;;;;;;5005056;28;20092;-70
2022/05/05 06:31:38;;;;;;;8.98;4.90;;;;;;;;;;5004802;28;20054;-69
2022/05/05 06:34:09;;;;;;;7.78;4.60;;;;;;;;;;5004808;28;20050;-70
2022/05/05 06:36:37;;;;;;;8.45;5.18;;;;;;;;;;5001356;28;20172;-69
2022/05/05 06:39:06;;;;;;;11.15;5.20;;;;;;;;;;5001340;28;20053;-70
2022/05/05 06:41:35;;;;;;;7.43;4.95;;;;;;;;;;5002400;28;20896;-69
2022/05/05 06:44:04;;;;;;;11.15;5.10;;;;;;;;;;5006335;28;20053;-69
2022/05/05 06:46:41;;;;;;;9.85;5.40;;;;;;;;;;5007350;28;20124;-69
2022/05/05 06:49:12;;;;;;;8.73;5.30;;;;;;;;;;5000072;28;20061;-70
2022/05/05 06:51:40;;;;;;;8.32;5.15;;;;;;;;;;5005979;28;20657;-70
2022/05/05 06:54:09;;;;;;;10.25;5.75;;;;;;;;;;5008053;28;20054;-70
2022/05/05 06:56:38;;;;;;;11.90;5.70;;;;;;;;;;5003354;28;20046;-70
2022/05/05 06:59:07;;;;;;;11.35;6.25;;;;;;;;;;5003088;28;20056;-69
2022/05/05 07:01:54;;;;;;;10.82;6.10;;;;;;;;;;5009138;28;20046;-69
2022/05/05 07:07:14;;;;;;;7.53;5.10;;;;;;;;;;5002464;28;20050;-69
2022/05/05 07:12:29;;;;;;;11.40;5.47;;;;;;;;;;5003248;28;20056;-69
2022/05/05 07:14:58;;;;;;;7.43;4.78;;;;;;;;;;5002545;28;20065;-71
2022/05/05 07:17:27;;;;;;;11.05;5.35;;;;;;;;;;5003100;28;20104;-69
2022/05/05 07:19:57;;;;;;;9.70;5.45;;;;;;;;;;5004448;28;20286;-69
2022/05/05 07:22:26;;;;;;;12.27;5.70;;;;;;;;;;5002603;28;20660;-70
2022/05/05 07:24:55;;;;;;;10.23;6.13;;;;;;;;;;5002139;28;20041;-69
2022/05/05 07:27:24;;;;;;;9.98;6.63;;;;;;;;;;5003349;28;20076;-69
2022/05/05 07:29:53;;;;;;;9.65;5.22;;;;;;;;;;5005180;28;20085;-72
2022/05/05 07:32:22;;;;;;;10.57;6.03;;;;;;;;;;5004687;28;20069;-72
2022/05/05 07:34:50;;;;;;;12.82;6.93;;;;;;;;;;5002972;28;20061;-69
2022/05/05 07:37:21;;;;;;;9.68;6.10;;;;;;;;;;5003764;28;20825;-69
2022/05/05 07:39:50;;;;;;;10.20;5.80;;;;;;;;;;5002906;28;20630;-69
2022/05/05 07:42:19;;;;;;;8.02;5.10;;;;;;;;;;5002602;28;20045;-69
2022/05/05 07:44:47;;;;;;;9.85;5.93;;;;;;;;;;5004369;28;20378;-69
2022/05/05 07:47:16;;;;;;;11.30;6.40;;;;;;;;;;5002954;28;20050;-70
2022/05/05 07:49:44;;;;;;;11.68;6.40;;;;;;;;;;5002658;28;20137;-69
2022/05/05 07:52:13;;;;;;;10.68;5.90;;;;;;;;;;5003242;28;20050;-69
2022/05/05 07:54:44;;;;;;;8.65;5.05;;;;;;;;;;5001262;28;20054;-70
2022/05/05 07:57:13;;;;;;;8.70;5.13;;;;;;;;;;5003067;28;20078;-71
2022/05/05 07:59:44;;;;;;;12.93;5.80;;;;;;;;;;5000419;28;20069;-69
2022/05/05 08:02:16;;;;;;;10.25;5.95;;;;;;;;;;5003756;28;20634;-69
2022/05/05 08:04:45;;;;;;;11.25;6.10;;;;;;;;;;5003741;28;20053;-69
2022/05/05 08:07:14;;;;;;;12.60;5.70;;;;;;;;;;5002492;28;20069;-69
2022/05/05 08:09:44;;;;;;;8.05;5.72;;;;;;;;;;4998646;28;20054;-69
2022/05/05 08:12:27;;;;;;;7.80;5.50;;;;;;;;;;5003975;28;20054;-69
2022/05/05 08:14:57;;;;;;;10.68;5.60;;;;;;;;;;5000656;28;20494;-69
2022/05/05 08:17:25;;;;;;;10.65;5.85;;;;;;;;;;5003682;28;20152;-68
2022/05/05 08:19:54;;;;;;;10.70;5.28;;;;;;;;;;5004868;28;20050;-69
2022/05/05 08:22:23;;;;;;;8.90;5.85;;;;;;;;;;5002963;28;20109;-71
2022/05/05 08:30:26;;;;;;;8.48;5.25;;;;;;;;;;5006941;28;20069;-70
2022/05/05 08:32:54;;;;;;;7.30;5.00;;;;;;;;;;5005807;28;20065;-68
2022/05/05 08:35:24;;;;;;;8.02;5.32;;;;;;;;;;5009051;28;20056;-68
2022/05/05 08:37:53;;;;;;;9.02;4.70;;;;;;;;;;5008052;28;20058;-68
2022/05/05 08:40:24;;;;;;;8.63;5.43;;;;;;;;;;5006810;28;20042;-70
2022/05/05 08:42:53;;;;;;;8.50;5.03;;;;;;;;;;5008564;28;20652;-70
2022/05/05 08:45:22;;;;;;;7.13;4.85;;;;;;;;;;5008588;28;20049;-73
2022/05/05 08:47:53;;;;;;;8.60;5.20;;;;;;;;;;5004728;28;20060;-70
2022/05/05 08:50:22;;;;;;;8.40;4.97;;;;;;;;;;5007950;28;20212;-70
2022/05/05 08:52:52;;;;;;;7.10;4.95;;;;;;;;;;5007718;28;20104;-69
2022/05/05 08:55:21;;;;;;;8.57;4.43;;;;;;;;;;5006900;28;20054;-70
2022/05/05 08:57:51;;;;;;;7.70;4.45;;;;;;;;;;5006846;28;20038;-69
2022/05/05 09:00:20;;;;;;;7.00;4.25;;;;;;;;;;5006239;28;20050;-72
2022/05/05 09:02:54;;;;;;;6.72;4.47;;;;;;;;;;5005928;28;20053;-70
2022/05/05 09:05:38;;;;;;;6.77;4.10;;;;;;;;;;5005590;28;20052;-70
2022/05/05 09:08:07;;;;;;;7.15;4.88;;;;;;;;;;5006458;28;20054;-70
2022/05/05 09:10:43;;;;;;;6.80;3.70;;;;;;;;;;5006359;28;20066;-69
2022/05/05 09:13:13;;;;;;;6.78;4.63;;;;;;;;;;5005626;28;20054;-70
2022/05/05 09:15:42;;;;;;;5.85;4.30;;;;;;;;;;5007052;28;20486;-69
2022/05/05 09:18:12;;;;;;;8.10;4.90;;;;;;;;;;5005628;28;20116;-69
2022/05/05 09:20:41;;;;;;;7.50;4.30;;;;;;;;;;5005567;28;20050;-69
2022/05/05 09:23:13;;;;;;;5.35;3.90;;;;;;;;;;5004722;28;20062;-69
2022/05/05 09:25:45;;;;;;;6.40;4.72;;;;;;;;;;5005979;28;20434;-70
2022/05/05 09:28:19;;;;;;;7.40;3.70;;;;;;;;;;5005367;28;20053;-69
2022/05/05 09:30:49;;;;;;;8.80;4.87;;;;;;;;;;5003877;28;20084;-72
2022/05/05 09:33:18;;;;;;;8.75;4.32;;;;;;;;;;5005892;28;20081;-70
2022/05/05 09:35:56;;;;;;;6.43;3.40;;;;;;;;;;5005674;28;20061;-69
2022/05/05 09:38:25;;;;;;;5.95;4.15;;;;;;;;;;5004166;28;20050;-69
2022/05/05 09:41:03;;;;;;;7.65;4.30;;;;;;;;;;5004846;28;20053;-69
2022/05/05 09:43:34;;;;;;;6.65;4.25;;;;;;;;;;5005584;28;20049;-71
2022/05/05 09:46:02;;;;;;;5.97;3.97;;;;;;;;;;5005271;28;20500;-69
2022/05/05 09:48:31;;;;;;;6.90;3.67;;;;;;;;;;5004369;28;20096;-69
2022/05/05 09:51:00;;;;;;;6.38;4.10;;;;;;;;;;5003919;28;20089;-69
2022/05/05 09:59:14;;;;;;;5.53;3.85;;;;;;;;;;5003851;28;20050;-69
2022/05/05 10:01:45;;;;;;;5.93;3.65;;;;;;;;;;5005314;28;20065;-68
2022/05/05 10:04:14;;;;;;;5.38;3.90;;;;;;;;;;5004628;28;20078;-72
2022/05/05 10:06:43;;;;;;;6.32;4.07;;;;;;;;;;5005000;28;20054;-69
2022/05/05 10:09:12;;;;;;;7.35;3.63;;;;;;;;;;5005053;28;20046;-69
2022/05/05 10:11:41;;;;;;;10.65;3.90;;;;;;;;;;5005470;28;20054;-69
2022/05/05 10:14:12;;;;;;;6.32;3.33;;;;;;;;;;5003956;28;20074;-70
2022/05/05 10:16:42;;;;;;;6.00;3.83;;;;;;;;;;5005707;28;20119;-69
2022/05/05 10:19:11;;;;;;;8.45;3.88;;;;;;;;;;5004164;28;20240;-69
2022/05/05 10:21:47;;;;;;;4.70;3.25;;;;;;;;;;5004148;28;20108;-69
2022/05/05 10:24:17;;;;;;;7.53;3.65;;;;;;;;;;5005135;28;20111;-69
2022/05/05 10:26:50;;;;;;;5.47;3.72;;;;;;;;;;5003245;28;20107;-69
2022/05/05 10:29:41;;;;;;;5.88;3.67;;;;;;;;;;5003510;28;20136;-69
2022/05/05 10:32:11;;;;;;;7.32;4.78;;;;;;;;;;5002546;28;20119;-69
2022/05/05 10:34:39;;;;;;;6.00;4.13;;;;;;;;;;5004931;28;20451;-69
2022/05/05 10:37:11;;;;;;;5.78;3.53;;;;;;;;;;5004087;28;20080;-69
2022/05/05 10:39:44;;;;;;;5.30;3.50;;;;;;;;;;5003773;28;20088;-69
2022/05/05 10:42:31;;;;;;;6.85;3.35;;;;;;;;;;5002104;28;20133;-69
2022/05/05 10:45:05;;;;;;;5.80;4.13;;;;;;;;;;5004281;28;20077;-71
2022/05/05 10:47:54;;;;;;;6.55;4.18;;;;;;;;;;5002819;28;20057;-70
2022/05/05 10:50:29;;;;;;;4.45;3.30;;;;;;;;;;5003923;28;20053;-70
2022/05/05 10:52:58;;;;;;;6.70;3.30;;;;;;;;;;5003484;28;20053;-71
2022/05/05 10:55:27;;;;;;;7.35;3.03;;;;;;;;;;5003300;28;20560;-71
2022/05/05 10:58:31;;;;;;;5.75;3.70;;;;;;;;;;5002390;28;20069;-69
2022/05/05 11:01:01;;;;;;;5.60;3.42;;;;;;;;;;5003103;28;20057;-69
2022/05/05 11:04:07;;;;;;;6.35;3.90;;;;;;;;;;5118690;27;20533;-67
2022/05/05 11:06:38;;;;;;;;;;;;;;;;;;5114548;28;20047;-68
2022/05/05 11:09:06;;;;;;;4.80;3.40;;;;;;;;;;5065488;28;19921;-68
2022/05/05 11:11:41;;;;;;;5.95;3.15;;;;;;;;;;5041569;28;20103;-68
2022/05/05 11:23:07;;;;;;;3.78;2.53;;;;;;;;;;4994413;28;20054;-68
2022/05/05 11:25:36;;;;;;;6.40;3.58;;;;;;;;;;5057557;28;20458;-68
2022/05/05 11:28:04;;;;;;;5.68;3.38;;;;;;;;;;5067075;28;20102;-68
2022/05/05 11:30:33;;;;;;;9.23;4.50;;;;;;;;;;5071690;28;20048;-71
2022/05/05 11:33:03;;;;;;;6.80;4.45;;;;;;;;;;5065776;28;20061;-68
2022/05/05 11:35:59;;;;;;;8.10;4.47;;;;;;;;;;5064716;28;20135;-70
2022/05/05 11:38:28;;;;;;;4.60;2.92;;;;;;;;;;5032121;28;20069;-68
2022/05/05 11:41:00;;;;;;;9.43;4.35;;;;;;;;;;5045797;28;20548;-69
2022/05/05 11:46:47;;;;;;;8.95;5.43;;;;;;;;;;5046787;28;20181;-69
2022/05/05 11:49:16;;;;;;;5.43;3.55;;;;;;;;;;5044350;28;20060;-67
2022/05/05 11:51:49;;;;;;;5.25;3.75;;;;;;;;;;5045481;28;20073;-69
2022/05/05 11:54:25;;;;;;;6.28;4.07;;;;;;;;;;5031464;28;20956;-70
2022/05/05 11:56:54;;;;;;;6.57;4.50;;;;;;;;;;5041539;28;20077;-71
2022/05/05 12:02:11;;;;;;;12.15;6.93;;;;;;;;;;5041454;28;20061;-68
2022/05/05 12:04:41;;;;;;;7.95;5.63;;;;;;;;;;5046843;28;20059;-68
2022/05/05 12:07:18;;;;;;;6.93;4.45;;;;;;;;;;5037679;28;20049;-69
2022/05/05 12:09:47;;;;;;;6.50;4.78;;;;;;;;;;5042907;28;20056;-67
2022/05/05 12:12:37;;;;;;;6.65;4.25;;;;;;;;;;5038058;28;20057;-69
2022/05/05 12:15:07;;;;;;;8.25;5.18;;;;;;;;;;5027803;28;20053;-71
2022/05/05 12:17:39;;;;;;;8.07;5.70;;;;;;;;;;5021219;28;20049;-70
2022/05/05 12:20:08;;;;;;;8.75;4.78;;;;;;;;;;5030329;28;20374;-69
2022/05/05 12:22:39;;;;;;;11.25;6.90;;;;;;;;;;5028525;28;20198;-68
2022/05/05 12:25:13;;;;;;;8.82;6.35;;;;;;;;;;5028882;28;20064;-68
2022/05/05 12:27:42;;;;;;;6.78;4.35;;;;;;;;;;5027545;28;20460;-69
2022/05/05 12:30:12;;;;;;;7.53;5.38;;;;;;;;;;5028972;28;20064;-71
2022/05/05 12:32:50;;;;;;;8.52;4.90;;;;;;;;;;5026472;28;20057;-68
2022/05/05 12:35:29;;;;;;;8.63;5.90;;;;;;;;;;5031242;28;20045;-69
2022/05/05 12:38:00;;;;;;;9.63;6.30;;;;;;;;;;5026139;28;20057;-69
2022/05/05 12:40:30;;;;;;;8.88;5.43;;;;;;;;;;5030421;28;20063;-71
2022/05/05 12:43:02;;;;;;;9.45;4.85;;;;;;;;;;5024437;28;20053;-71
2022/05/05 12:45:33;;;;;;;7.28;5.45;;;;;;;;;;5028552;28;20111;-72
2022/05/05 12:48:02;;;;;;;8.52;4.72;;;;;;;;;;5031736;28;20053;-71
2022/05/05 12:50:32;;;;;;;7.38;4.78;;;;;;;;;;5040050;28;20140;-69
2022/05/05 12:59:46;;;;;;;4.95;3.20;;;;;;;;;;5032902;28;20390;-69
2022/05/05 13:02:15;;;;;;;6.72;3.88;;;;;;;;;;5037782;28;20841;-69
2022/05/05 13:04:47;;;;;;;6.10;4.10;;;;;;;;;;5030038;28;20079;-69
2022/05/05 13:07:15;;;;;;;7.22;4.93;;;;;;;;;;5031905;28;20049;-68
2022/05/05 13:09:44;;;;;;;7.60;3.13;;;;;;;;;;5028465;28;20054;-68
2022/05/05 13:12:14;;;;;;;7.55;4.65;;;;;;;;;;5032943;28;20057;-68
2022/05/05 13:14:43;;;;;;;7.82;4.47;;;;;;;;;;5028717;28;20489;-68
2022/05/05 13:17:12;;;;;;;9.82;5.93;;;;;;;;;;5032095;28;20049;-71
2022/05/05 13:19:42;;;;;;;7.10;5.20;;;;;;;;;;5031599;28;20049;-70
2022/05/05 13:22:11;;;;;;;7.38;5.30;;;;;;;;;;5030315;28;20060;-70
2022/05/05 13:24:39;;;;;;;8.63;5.65;;;;;;;;;;5028617;28;20052;-70
2022/05/05 13:27:08;;;;;;;9.82;6.28;;;;;;;;;;5022546;28;20140;-71
2022/05/05 13:29:38;;;;;;;7.70;5.32;;;;;;;;;;5032337;28;20053;-66
2022/05/05 13:32:07;;;;;;;7.93;4.95;;;;;;;;;;5027448;28;20586;-67
2022/05/05 13:34:36;;;;;;;8.57;6.53;;;;;;;;;;5027108;28;20061;-68
2022/05/05 13:37:05;;;;;;;10.05;6.45;;;;;;;;;;5029542;28;20136;-68
2022/05/05 13:39:33;;;;;;;7.53;5.95;;;;;;;;;;5025744;28;20045;-70
2022/05/05 13:42:03;;;;;;;9.68;5.53;;;;;;;;;;5023849;28;20056;-71
2022/05/05 13:44:31;;;;;;;9.18;5.93;;;;;;;;;;5028128;28;20056;-69
2022/05/05 13:47:02;;;;;;;8.13;5.30;;;;;;;;;;5033658;28;20053;-70
2022/05/05 13:49:30;;;;;;;7.38;4.82;;;;;;;;;;5029399;28;20053;-71
2022/05/05 13:51:59;;;;;;;8.88;5.68;;;;;;;;;;5022230;28;20452;-68
2022/05/05 13:54:38;;;;;;;9.02;6.18;;;;;;;;;;5027872;28;20061;-69
2022/05/05 13:57:07;;;;;;;7.10;5.03;;;;;;;;;;5024922;28;20045;-68
2022/05/05 13:59:35;;;;;;;8.73;5.55;;;;;;;;;;5027720;28;20126;-68
2022/05/05 14:02:25;;;;;;;9.80;6.35;;;;;;;;;;5028732;28;20576;-70
2022/05/05 14:04:54;;;;;;;9.32;5.65;;;;;;;;;;5026257;28;20056;-68
2022/05/05 14:12:53;;;;;;;10.93;7.57;;;;;;;;;;5022349;28;20049;-69
2022/05/05 14:15:22;;;;;;;7.85;5.60;;;;;;;;;;5014894;28;20076;-68
2022/05/05 14:17:52;;;;;;;9.07;5.78;;;;;;;;;;5024614;28;20048;-69
2022/05/05 14:20:21;;;;;;;12.90;6.00;;;;;;;;;;5026719;28;20492;-69
2022/05/05 14:22:50;;;;;;;10.45;6.70;;;;;;;;;;5024004;28;20054;-69
2022/05/05 14:25:19;;;;;;;8.20;5.35;;;;;;;;;;5028246;28;20076;-69
2022/05/05 14:27:48;;;;;;;11.63;5.75;;;;;;;;;;5028180;28;20056;-69
2022/05/05 14:30:16;;;;;;;8.20;5.60;;;;;;;;;;5020106;28;20061;-68
2022/05/05 14:32:46;;;;;;;8.95;6.07;;;;;;;;;;5027945;28;20073;-69
2022/05/05 14:35:16;;;;;;;7.95;4.72;;;;;;;;;;5023395;28;20054;-70
2022/05/05 14:37:45;;;;;;;11.90;6.55;;;;;;;;;;5030799;28;20049;-68
2022/05/05 14:40:14;;;;;;;8.73;5.75;;;;;;;;;;5029030;28;20049;-69
2022/05/05 14:42:43;;;;;;;9.50;5.50;;;;;;;;;;5023586;28;20271;-68
2022/05/05 14:45:16;;;;;;;7.07;4.78;;;;;;;;;;5029071;28;20440;-69
2022/05/05 14:47:45;;;;;;;8.45;5.20;;;;;;;;;;5026069;28;20053;-71
2022/05/05 14:50:15;;;;;;;46.60;5.85;;;;;;;;;;5029174;28;20771;-70
2022/05/05 14:52:50;;;;;;;18.92;5.00;;;;;;;;;;5027813;28;20053;-70
2022/05/05 14:55:20;;;;;;;18.38;5.90;;;;;;;;;;5020921;28;20069;-69
2022/05/05 14:57:49;;;;;;;47.72;7.22;;;;;;;;;;5027878;28;20049;-68
2022/05/05 15:00:18;;;;;;;8.32;5.10;;;;;;;;;;5022383;28;20088;-69
2022/05/05 15:02:47;;;;;;;7.18;4.00;;;;;;;;;;5028618;28;20057;-69
2022/05/05 15:05:16;;;;;;;37.03;5.57;;;;;;;;;;5028985;28;20053;-72
2022/05/05 15:07:45;;;;;;;6.00;3.80;;;;;;;;;;5022324;28;20088;-69
2022/05/05 15:10:13;;;;;;;15.27;3.80;;;;;;;;;;5023136;28;20163;-71
2022/05/05 15:12:42;;;;;;;24.35;4.93;;;;;;;;;;5028717;28;20162;-69
2022/05/05 15:15:11;;;;;;;12.20;4.53;;;;;;;;;;5026818;28;20106;-69
2022/05/05 15:17:39;;;;;;;5.80;3.05;;;;;;;;;;5027734;28;20053;-71
2022/05/05 15:20:09;;;;;;;4.80;3.00;;;;;;;;;;5021671;28;20049;-69
2022/05/05 15:22:39;;;;;;;4.40;2.85;;;;;;;;;;5026345;28;20148;-69
2022/05/05 15:25:10;;;;;;;25.40;3.08;;;;;;;;;;5017413;28;20045;-70
2022/05/05 15:27:39;;;;;;;5.80;2.70;;;;;;;;;;5025229;28;20172;-69
2022/05/05 15:30:08;;;;;;;8.65;2.83;;;;;;;;;;5029797;28;20053;-70
2022/05/05 15:32:37;;;;;;;7.75;2.08;;;;;;;;;;5027578;28;20964;-71
2022/05/05 15:35:06;;;;;;;9.07;2.55;;;;;;;;;;5028875;28;20578;-69
2022/05/05 15:37:36;;;;;;;2.90;2.10;;;;;;;;;;5028270;28;20057;-69
2022/05/05 15:40:07;;;;;;;4.13;2.13;;;;;;;;;;5024958;28;20053;-71
2022/05/05 15:42:35;;;;;;;8.70;1.92;;;;;;;;;;5023506;28;20522;-69
2022/05/05 15:45:04;;;;;;;21.60;2.65;;;;;;;;;;5022149;28;20458;-70
2022/05/05 15:47:33;;;;;;;3.97;1.90;;;;;;;;;;5027935;28;20084;-68
2022/05/05 15:50:01;;;;;;;5.72;2.25;;;;;;;;;;5033202;28;20100;-69
2022/05/05 15:52:32;;;;;;;2.83;2.00;;;;;;;;;;5034876;28;20079;-69
2022/05/05 15:55:00;;;;;;;5.43;2.10;;;;;;;;;;5030431;28;20493;-70
2022/05/05 15:57:30;;;;;;;4.20;1.58;;;;;;;;;;5030738;28;20084;-69
2022/05/05 16:00:00;;;;;;;6.25;2.58;;;;;;;;;;5035819;28;20092;-68